Time,TemperatureF,DewpointF,PressureIn,WindDirection,WindDirectionDegrees,WindSpeedMPH,WindSpeedGustMPH,Humidity,HourlyPrecipIn,Conditions,Clouds,dailyrainin,SoftwareType,DateUTC
2013-02-10 00:03:00,34.5,27.9,29.93,East,90,2.2,2.4,77,0.00,,,0.00,WUHU216HW,2013-02-09 23:03:00,
2013-02-10 00:08:00,34.5,27.9,29.93,East,90,1.7,2.4,77,0.00,,,0.00,WUHU216HW,2013-02-09 23:08:00,
2013-02-10 00:13:00,34.3,27.7,29.93,ESE,113,1.5,2.4,77,0.00,,,0.00,WUHU216HW,2013-02-09 23:13:00,
2013-02-10 00:18:00,34.5,27.9,29.93,East,90,1.0,2.0,77,0.00,,,0.00,WUHU216HW,2013-02-09 23:18:00,
2013-02-10 00:23:00,34.5,27.9,29.92,East,90,2.2,2.2,77,0.00,,,0.00,WUHU216HW,2013-02-09 23:23:00,
2013-02-10 00:28:00,34.3,27.9,29.92,ESE,113,0.8,2.2,77,0.00,,,0.00,WUHU216HW,2013-02-09 23:28:00,
2013-02-10 00:33:00,34.3,27.7,29.92,ESE,113,0.0,1.5,77,0.00,,,0.00,WUHU216HW,2013-02-09 23:33:00,
2013-02-10 00:38:00,34.5,27.9,29.92,South,180,0.0,0.0,77,0.00,,,0.00,WUHU216HW,2013-02-09 23:38:00,
2013-02-10 00:43:00,34.5,27.9,29.92,South,180,0.0,0.0,77,0.00,,,0.00,WUHU216HW,2013-02-09 23:43:00,
2013-02-10 00:48:00,34.3,27.7,29.92,South,180,0.0,0.0,77,0.00,,,0.00,WUHU216HW,2013-02-09 23:48:00,
2013-02-10 00:53:00,34.1,27.6,29.91,South,180,0.0,0.0,77,0.00,,,0.00,WUHU216HW,2013-02-09 23:53:00,
2013-02-10 00:58:00,33.9,27.4,29.92,SE,135,0.0,0.0,77,0.00,,,0.00,WUHU216HW,2013-02-09 23:58:00,
2013-02-10 01:03:00,33.8,27.2,29.92,SE,135,0.0,0.0,77,0.00,,,0.00,WUHU216HW,2013-02-10 00:03:00,
2013-02-10 01:08:00,33.6,27.0,29.92,ESE,113,2.0,2.0,77,0.00,,,0.00,WUHU216HW,2013-02-10 00:08:00,
2013-02-10 01:13:00,33.9,27.4,29.92,ESE,113,2.2,2.4,77,0.00,,,0.00,WUHU216HW,2013-02-10 00:13:00,
2013-02-10 01:18:00,33.9,27.4,29.92,ESE,113,1.3,2.4,77,0.00,,,0.00,WUHU216HW,2013-02-10 00:18:00,
2013-02-10 01:23:00,34.3,27.7,29.91,SE,135,0.0,2.2,77,0.00,,,0.00,WUHU216HW,2013-02-10 00:23:00,
2013-02-10 01:28:00,34.3,27.7,29.91,East,90,1.4,1.5,77,0.00,,,0.00,WUHU216HW,2013-02-10 00:28:00,
2013-02-10 01:33:00,34.1,27.6,29.91,ESE,113,0.0,1.5,77,0.00,,,0.00,WUHU216HW,2013-02-10 00:33:00,
2013-02-10 01:38:00,33.9,27.4,29.92,ESE,113,0.0,0.0,77,0.00,,,0.00,WUHU216HW,2013-02-10 00:38:00,
2013-02-10 01:43:00,33.9,27.4,29.92,ESE,113,0.0,0.0,77,0.00,,,0.00,WUHU216HW,2013-02-10 00:43:00,
2013-02-10 01:48:00,33.9,27.4,29.92,ESE,113,0.0,0.0,77,0.00,,,0.00,WUHU216HW,2013-02-10 00:48:00,
2013-02-10 01:53:00,33.9,27.4,29.92,ESE,113,1.5,1.5,77,0.00,,,0.00,WUHU216HW,2013-02-10 00:53:00,
2013-02-10 01:58:00,34.1,27.6,29.92,ESE,113,1.3,2.0,77,0.00,,,0.00,WUHU216HW,2013-02-10 00:58:00,
2013-02-10 02:03:00,34.1,27.6,29.93,ESE,113,0.0,2.0,77,0.00,,,0.00,WUHU216HW,2013-02-10 01:03:00,
2013-02-10 02:08:00,34.1,27.6,29.93,ESE,113,0.0,0.0,77,0.00,,,0.00,WUHU216HW,2013-02-10 01:08:00,
2013-02-10 02:13:00,34.1,27.6,29.93,SE,135,0.0,0.0,77,0.00,,,0.00,WUHU216HW,2013-02-10 01:13:00,
2013-02-10 02:18:00,34.5,27.9,29.93,East,90,1.3,1.5,77,0.00,,,0.00,WUHU216HW,2013-02-10 01:18:00,
2013-02-10 02:23:00,34.5,27.9,29.93,East,90,1.3,3.1,77,0.00,,,0.00,WUHU216HW,2013-02-10 01:23:00,
2013-02-10 02:28:00,34.5,27.9,29.93,East,90,1.1,3.1,77,0.00,,,0.00,WUHU216HW,2013-02-10 01:28:00,
2013-02-10 02:33:00,34.7,28.1,29.93,ENE,68,0.0,1.5,77,0.00,,,0.00,WUHU216HW,2013-02-10 01:33:00,
2013-02-10 02:38:00,34.8,28.3,29.93,East,90,2.4,2.4,77,0.00,,,0.00,WUHU216HW,2013-02-10 01:38:00,
2013-02-10 02:43:00,35.4,28.5,29.93,NNE,23,0.0,2.6,76,0.00,,,0.00,WUHU216HW,2013-02-10 01:43:00,
2013-02-10 02:48:00,35.4,28.5,29.92,ENE,68,0.0,2.6,76,0.00,,,0.00,WUHU216HW,2013-02-10 01:48:00,
2013-02-10 02:53:00,35.4,28.5,29.92,ENE,68,2.0,2.0,76,0.00,,,0.00,WUHU216HW,2013-02-10 01:53:00,
2013-02-10 02:58:00,35.6,28.4,29.92,NNE,23,0.0,2.0,75,0.00,,,0.00,WUHU216HW,2013-02-10 01:58:00,
2013-02-10 03:03:00,35.7,28.5,29.92,NNE,23,0.0,1.5,75,0.00,,,0.00,WUHU216HW,2013-02-10 02:03:00,
2013-02-10 03:08:00,35.2,28.3,29.92,NNE,23,0.0,0.0,76,0.00,,,0.00,WUHU216HW,2013-02-10 02:08:00,
2013-02-10 03:13:00,34.8,28.0,29.92,SW,225,2.9,2.9,76,0.00,,,0.00,WUHU216HW,2013-02-10 02:13:00,
2013-02-10 03:19:00,34.8,28.3,29.92,SSW,210,1.7,3.1,77,0.00,,,0.00,WUHU216HW,2013-02-10 02:19:00,
2013-02-10 03:24:00,34.7,28.1,29.92,SSW,203,5.1,5.1,77,0.00,,,0.00,WUHU216HW,2013-02-10 02:24:00,
2013-02-10 03:29:00,34.8,28.3,29.92,SW,225,1.1,5.1,77,0.00,,,0.00,WUHU216HW,2013-02-10 02:29:00,
2013-02-10 03:34:00,35.4,28.8,29.92,South,180,1.3,1.7,77,0.00,,,0.00,WUHU216HW,2013-02-10 02:34:00,
2013-02-10 03:39:00,35.4,28.8,29.91,SSW,203,0.0,1.5,77,0.00,,,0.00,WUHU216HW,2013-02-10 02:39:00,
2013-02-10 03:44:00,35.2,28.6,29.92,NNE,13,0.7,0.8,77,0.00,,,0.00,WUHU216HW,2013-02-10 02:44:00,
2013-02-10 03:49:00,34.7,27.9,29.92,ENE,68,0.6,1.5,77,0.00,,,0.00,WUHU216HW,2013-02-10 02:49:00,
2013-02-10 03:54:00,34.5,27.9,29.92,ENE,68,0.0,1.5,77,0.00,,,0.00,WUHU216HW,2013-02-10 02:54:00,
2013-02-10 03:59:00,34.3,27.7,29.91,East,90,0.0,0.8,77,0.00,,,0.00,WUHU216HW,2013-02-10 02:59:00,
2013-02-10 04:04:00,34.8,28.3,29.91,East,90,0.0,0.8,77,0.00,,,0.00,WUHU216HW,2013-02-10 03:04:00,
2013-02-10 04:09:00,34.8,28.3,29.91,ENE,68,0.0,0.6,77,0.00,,,0.00,WUHU216HW,2013-02-10 03:09:00,
2013-02-10 04:14:00,34.8,28.3,29.91,East,90,0.0,1.1,77,0.00,,,0.00,WUHU216HW,2013-02-10 03:14:00,
2013-02-10 04:19:00,34.8,28.3,29.91,ENE,68,1.1,2.0,77,0.00,,,0.00,WUHU216HW,2013-02-10 03:19:00,
2013-02-10 04:24:00,34.8,28.3,29.91,East,90,0.0,2.0,77,0.00,,,0.00,WUHU216HW,2013-02-10 03:24:00,
2013-02-10 04:29:00,34.7,28.1,29.91,ENE,68,0.0,0.6,77,0.00,,,0.00,WUHU216HW,2013-02-10 03:29:00,
2013-02-10 04:34:00,34.3,27.7,29.91,SSW,203,0.0,0.6,77,0.00,,,0.00,WUHU216HW,2013-02-10 03:34:00,
2013-02-10 04:39:00,34.1,27.6,29.91,SSW,203,0.0,0.0,77,0.00,,,0.00,WUHU216HW,2013-02-10 03:39:00,
2013-02-10 04:44:00,34.3,27.7,29.91,South,180,1.4,3.8,77,0.00,,,0.00,WUHU216HW,2013-02-10 03:44:00,
2013-02-10 04:49:00,34.5,27.9,29.91,SSE,158,0.0,3.8,77,0.00,,,0.00,WUHU216HW,2013-02-10 03:49:00,
2013-02-10 04:54:00,34.8,28.1,29.91,SSE,158,0.0,0.0,77,0.00,,,0.00,WUHU216HW,2013-02-10 03:54:00,
2013-02-10 04:59:00,34.8,28.3,29.91,ESE,113,1.1,1.1,77,0.00,,,0.00,WUHU216HW,2013-02-10 03:59:00,
2013-02-10 05:04:00,34.8,28.3,29.91,East,90,2.2,2.2,77,0.00,,,0.00,WUHU216HW,2013-02-10 04:04:00,
2013-02-10 05:09:00,34.7,27.8,29.91,ESE,113,0.0,2.2,76,0.00,,,0.00,WUHU216HW,2013-02-10 04:09:00,
2013-02-10 05:14:00,34.5,27.9,29.91,ESE,113,0.0,1.3,77,0.00,,,0.00,WUHU216HW,2013-02-10 04:14:00,
2013-02-10 05:19:00,34.5,27.9,29.91,ESE,113,0.0,0.8,77,0.00,,,0.00,WUHU216HW,2013-02-10 04:19:00,
2013-02-10 05:24:00,34.3,27.7,29.91,East,90,0.0,0.0,77,0.00,,,0.00,WUHU216HW,2013-02-10 04:24:00,
2013-02-10 05:29:00,34.1,27.6,29.91,East,90,2.0,2.0,77,0.00,,,0.00,WUHU216HW,2013-02-10 04:29:00,
2013-02-10 05:34:00,34.3,27.7,29.91,East,99,1.6,2.0,77,0.00,,,0.00,WUHU216HW,2013-02-10 04:34:00,
2013-02-10 05:39:00,34.3,27.7,29.91,East,90,2.3,2.4,77,0.00,,,0.00,WUHU216HW,2013-02-10 04:39:00,
2013-02-10 05:44:00,34.5,27.9,29.91,East,90,1.5,2.4,77,0.00,,,0.00,WUHU216HW,2013-02-10 04:44:00,
2013-02-10 05:49:00,34.5,27.9,29.91,East,90,0.8,2.2,77,0.00,,,0.00,WUHU216HW,2013-02-10 04:49:00,
2013-02-10 05:54:00,34.5,27.9,29.91,ENE,68,0.0,0.8,77,0.00,,,0.00,WUHU216HW,2013-02-10 04:54:00,
2013-02-10 05:59:00,34.3,27.7,29.91,ENE,68,0.0,0.0,77,0.00,,,0.00,WUHU216HW,2013-02-10 04:59:00,
2013-02-10 06:00:00,34.3,27.7,29.91,ENE,68,0.0,0.0,77,0.00,,,0.00,WUHU216HW,2013-02-10 05:00:00,
2013-02-10 06:05:00,34.1,27.6,29.91,ENE,68,0.0,0.0,77,0.00,,,0.00,WUHU216HW,2013-02-10 05:05:00,
2013-02-10 06:10:00,34.3,27.7,29.90,East,90,0.8,0.8,77,0.00,,,0.00,WUHU216HW,2013-02-10 05:10:00,
2013-02-10 06:15:00,34.5,27.9,29.91,East,90,0.0,0.8,77,0.00,,,0.00,WUHU216HW,2013-02-10 05:15:00,
2013-02-10 06:20:00,34.3,27.7,29.91,NNE,23,0.0,0.0,77,0.00,,,0.00,WUHU216HW,2013-02-10 05:20:00,
2013-02-10 06:25:00,34.3,27.7,29.91,SSW,203,0.0,0.0,77,0.00,,,0.00,WUHU216HW,2013-02-10 05:25:00,
2013-02-10 06:30:00,34.3,27.7,29.91,WSW,248,1.5,1.5,77,0.00,,,0.00,WUHU216HW,2013-02-10 05:30:00,
2013-02-10 06:35:00,34.3,27.7,29.91,SW,225,1.3,3.1,77,0.00,,,0.00,WUHU216HW,2013-02-10 05:35:00,
2013-02-10 06:40:00,34.3,27.7,29.91,SSW,203,0.8,3.1,77,0.00,,,0.00,WUHU216HW,2013-02-10 05:40:00,
2013-02-10 06:45:00,34.5,27.9,29.91,SW,225,0.6,0.8,77,0.00,,,0.00,WUHU216HW,2013-02-10 05:45:00,
2013-02-10 06:50:00,34.5,27.9,29.91,WSW,248,1.3,1.3,77,0.00,,,0.00,WUHU216HW,2013-02-10 05:50:00,
2013-02-10 06:55:00,34.5,27.9,29.91,WSW,248,0.0,1.3,77,0.00,,,0.00,WUHU216HW,2013-02-10 05:55:00,
2013-02-10 07:00:00,34.5,27.9,29.92,WSW,248,0.0,0.0,77,0.00,,,0.00,WUHU216HW,2013-02-10 06:00:00,
2013-02-10 07:05:00,34.5,27.9,29.91,North,0,0.0,0.0,77,0.00,,,0.00,WUHU216HW,2013-02-10 06:05:00,
2013-02-10 07:10:00,34.5,27.9,29.91,ENE,68,0.0,1.5,77,0.00,,,0.00,WUHU216HW,2013-02-10 06:10:00,
2013-02-10 07:15:00,34.7,28.1,29.91,NE,45,0.0,1.5,77,0.00,,,0.00,WUHU216HW,2013-02-10 06:15:00,
2013-02-10 07:20:00,34.7,28.1,29.92,NE,45,0.0,0.0,77,0.00,,,0.00,WUHU216HW,2013-02-10 06:20:00,
2013-02-10 07:25:00,34.7,28.1,29.92,NE,45,0.0,0.0,77,0.00,,,0.00,WUHU216HW,2013-02-10 06:25:00,
2013-02-10 07:30:00,34.7,28.3,29.93,North,0,1.3,1.3,77,0.00,,,0.00,WUHU216HW,2013-02-10 06:30:00,
2013-02-10 07:35:00,34.7,28.1,29.93,NNW,338,0.0,1.3,77,0.00,,,0.00,WUHU216HW,2013-02-10 06:35:00,
2013-02-10 07:40:00,34.5,28.1,29.93,SW,225,1.3,1.3,77,0.00,,,0.00,WUHU216HW,2013-02-10 06:40:00,
2013-02-10 07:45:00,34.5,27.9,29.93,ESE,113,0.0,1.3,77,0.00,,,0.00,WUHU216HW,2013-02-10 06:45:00,
2013-02-10 07:50:00,34.7,28.1,29.93,SSW,203,0.0,1.3,77,0.00,,,0.00,WUHU216HW,2013-02-10 06:50:00,
2013-02-10 07:55:00,35.2,28.6,29.93,SSW,203,0.0,1.3,77,0.00,,,0.00,WUHU216HW,2013-02-10 06:55:00,
2013-02-10 08:00:00,35.6,29.0,29.93,SW,225,1.5,1.5,77,0.00,,,0.00,WUHU216HW,2013-02-10 07:00:00,
2013-02-10 08:05:00,35.7,29.2,29.93,SE,135,1.3,2.0,77,0.00,,,0.00,WUHU216HW,2013-02-10 07:05:00,
2013-02-10 08:10:00,36.1,29.5,29.93,ESE,113,0.0,2.0,77,0.00,,,0.00,WUHU216HW,2013-02-10 07:10:00,
2013-02-10 08:15:00,36.3,29.7,29.93,NNE,23,1.2,1.3,77,0.00,,,0.00,WUHU216HW,2013-02-10 07:15:00,
2013-02-10 08:20:00,35.9,29.4,29.94,NNE,23,0.0,1.3,77,0.00,,,0.00,WUHU216HW,2013-02-10 07:20:00,
2013-02-10 08:25:00,36.1,29.5,29.94,NNE,23,0.0,0.0,77,0.00,,,0.00,WUHU216HW,2013-02-10 07:25:00,
2013-02-10 08:30:00,36.1,29.5,29.94,East,90,2.4,2.4,77,0.00,,,0.00,WUHU216HW,2013-02-10 07:30:00,
2013-02-10 08:35:00,36.1,29.5,29.94,ESE,113,1.7,2.4,77,0.00,,,0.00,WUHU216HW,2013-02-10 07:35:00,
2013-02-10 08:40:00,36.5,29.6,29.94,SE,135,2.2,2.2,76,0.00,,,0.00,WUHU216HW,2013-02-10 07:40:00,
2013-02-10 08:45:00,37.0,29.8,29.94,East,90,0.0,2.2,75,0.00,,,0.00,WUHU216HW,2013-02-10 07:45:00,
2013-02-10 08:51:00,37.4,30.2,29.94,SW,225,1.7,1.7,75,0.00,,,0.00,WUHU216HW,2013-02-10 07:51:00,
2013-02-10 08:56:00,37.9,30.3,29.94,SSW,203,0.0,1.7,74,0.00,,,0.00,WUHU216HW,2013-02-10 07:56:00,
2013-02-10 09:01:00,38.1,30.3,29.94,SSW,203,2.2,2.2,73,0.00,,,0.00,WUHU216HW,2013-02-10 08:01:00,
2013-02-10 09:06:00,38.4,29.8,29.94,SW,225,0.0,2.2,71,0.00,,,0.00,WUHU216HW,2013-02-10 08:06:00,
2013-02-10 09:12:00,38.8,30.2,29.94,WSW,248,0.0,2.0,71,0.00,,,0.00,WUHU216HW,2013-02-10 08:12:00,
2013-02-10 09:17:00,38.6,29.3,29.94,West,261,2.2,3.1,69,0.00,,,0.00,WUHU216HW,2013-02-10 08:17:00,
2013-02-10 09:22:00,38.4,29.1,29.94,NW,315,2.4,3.8,69,0.00,,,0.00,WUHU216HW,2013-02-10 08:22:00,
2013-02-10 09:27:00,38.3,29.0,29.94,West,270,1.2,3.8,69,0.00,,,0.00,WUHU216HW,2013-02-10 08:27:00,
2013-02-10 09:32:00,38.3,29.3,29.94,West,270,1.1,2.2,70,0.00,,,0.00,WUHU216HW,2013-02-10 08:32:00,
2013-02-10 09:37:00,38.3,29.0,29.94,SSW,203,2.0,2.4,69,0.00,,,0.00,WUHU216HW,2013-02-10 08:37:00,
2013-02-10 09:42:00,38.4,29.1,29.94,SW,225,3.1,3.1,69,0.00,,,0.00,WUHU216HW,2013-02-10 08:42:00,
2013-02-10 09:47:00,38.4,29.1,29.94,WSW,238,1.9,3.1,69,0.00,,,0.00,WUHU216HW,2013-02-10 08:47:00,
2013-02-10 09:53:00,38.8,29.1,29.94,SSW,203,2.6,2.6,68,0.00,,,0.00,WUHU216HW,2013-02-10 08:53:00,
2013-02-10 09:58:00,38.8,28.7,29.94,SW,225,3.1,3.1,67,0.00,,,0.00,WUHU216HW,2013-02-10 08:58:00,
2013-02-10 10:03:00,39.0,28.9,29.94,WSW,254,1.4,3.1,67,0.00,,,0.00,WUHU216HW,2013-02-10 09:03:00,
2013-02-10 10:08:00,39.0,28.5,29.94,WSW,239,2.0,2.9,66,0.00,,,0.00,WUHU216HW,2013-02-10 09:08:00,
2013-02-10 10:13:00,39.5,28.8,29.95,SSW,203,1.3,3.8,65,0.00,,,0.00,WUHU216HW,2013-02-10 09:13:00,
2013-02-10 10:19:00,40.6,29.5,29.94,SW,225,2.0,3.8,64,0.00,,,0.00,WUHU216HW,2013-02-10 09:19:00,
2013-02-10 10:24:00,40.8,29.1,29.95,South,191,1.2,2.2,64,0.00,,,0.00,WUHU216HW,2013-02-10 09:24:00,
2013-02-10 10:29:00,41.3,29.3,29.94,South,180,1.4,3.1,62,0.00,,,0.00,WUHU216HW,2013-02-10 09:29:00,
2013-02-10 10:34:00,42.4,29.8,29.94,South,171,2.0,3.1,61,0.00,,,0.00,WUHU216HW,2013-02-10 09:34:00,
2013-02-10 10:39:00,42.6,29.8,29.94,West,270,2.2,2.4,60,0.00,,,0.00,WUHU216HW,2013-02-10 09:39:00,
2013-02-10 10:44:00,42.0,29.7,29.95,WSW,248,3.1,3.1,61,0.00,,,0.00,WUHU216HW,2013-02-10 09:44:00,
2013-02-10 10:49:00,42.6,29.6,29.95,WSW,248,2.4,3.1,60,0.00,,,0.00,WUHU216HW,2013-02-10 09:49:00,
2013-02-10 10:54:00,42.9,29.5,29.95,WSW,248,1.5,2.9,59,0.00,,,0.00,WUHU216HW,2013-02-10 09:54:00,
2013-02-10 10:59:00,43.7,29.8,29.94,SW,225,1.7,1.7,58,0.00,,,0.00,WUHU216HW,2013-02-10 09:59:00,
2013-02-10 11:04:00,43.3,29.4,29.94,South,189,2.8,3.8,58,0.00,,,0.00,WUHU216HW,2013-02-10 10:04:00,
2013-02-10 11:09:00,44.4,30.1,29.94,SSE,158,1.2,3.8,57,0.00,,,0.00,WUHU216HW,2013-02-10 10:09:00,
2013-02-10 11:14:00,45.5,30.2,29.95,WNW,293,0.0,3.1,55,0.00,,,0.00,WUHU216HW,2013-02-10 10:14:00,
2013-02-10 11:19:00,46.0,29.7,29.95,SE,135,0.0,3.1,53,0.00,,,0.00,WUHU216HW,2013-02-10 10:19:00,
2013-02-10 11:24:00,46.7,29.9,29.95,South,180,1.7,1.7,52,0.00,,,0.00,WUHU216HW,2013-02-10 10:24:00,
2013-02-10 11:29:00,48.0,29.5,29.94,ENE,68,1.1,1.7,48,0.00,,,0.00,WUHU216HW,2013-02-10 10:29:00,
2013-02-10 11:34:00,47.3,25.2,29.94,ENE,68,7.3,7.3,41,0.00,,,0.00,WUHU216HW,2013-02-10 10:34:00,
2013-02-10 11:40:00,46.2,23.1,29.94,NE,55,6.1,7.6,40,0.00,,,0.00,WUHU216HW,2013-02-10 10:40:00,
2013-02-10 11:45:00,45.5,23.0,29.94,East,81,5.0,11.8,41,0.00,,,0.00,WUHU216HW,2013-02-10 10:45:00,
2013-02-10 11:50:00,46.0,23.5,29.94,East,90,7.3,11.8,41,0.00,,,0.00,WUHU216HW,2013-02-10 10:50:00,
2013-02-10 11:55:00,46.0,22.3,29.94,East,91,7.1,7.6,39,0.00,,,0.00,WUHU216HW,2013-02-10 10:55:00,
2013-02-10 12:00:00,46.0,23.0,29.94,NNE,23,2.2,7.6,40,0.00,,,0.00,WUHU216HW,2013-02-10 11:00:00,
2013-02-10 12:05:00,46.4,23.3,29.94,ENE,68,2.4,6.9,40,0.00,,,0.00,WUHU216HW,2013-02-10 11:05:00,
2013-02-10 12:10:00,46.5,22.8,29.94,East,90,3.1,6.7,39,0.00,,,0.00,WUHU216HW,2013-02-10 11:10:00,
2013-02-10 12:15:00,47.1,23.3,29.94,East,90,10.2,10.2,39,0.00,,,0.00,WUHU216HW,2013-02-10 11:15:00,
2013-02-10 12:20:00,46.7,22.3,29.94,ENE,58,6.0,10.2,38,0.00,,,0.00,WUHU216HW,2013-02-10 11:20:00,
2013-02-10 12:25:00,47.1,22.6,29.94,East,90,3.1,6.9,38,0.00,,,0.00,WUHU216HW,2013-02-10 11:25:00,
2013-02-10 12:30:00,47.1,22.6,29.93,North,0,2.0,5.1,38,0.00,,,0.00,WUHU216HW,2013-02-10 11:30:00,
2013-02-10 12:35:00,47.1,22.0,29.94,NE,35,5.6,6.0,37,0.00,,,0.00,WUHU216HW,2013-02-10 11:35:00,
2013-02-10 12:40:00,47.1,22.6,29.94,East,90,0.8,6.0,38,0.00,,,0.00,WUHU216HW,2013-02-10 11:40:00,
2013-02-10 12:45:00,47.6,23.8,29.94,ESE,113,2.2,5.8,39,0.00,,,0.00,WUHU216HW,2013-02-10 11:45:00,
2013-02-10 12:50:00,48.5,24.6,29.94,ESE,113,3.5,3.5,39,0.00,,,0.00,WUHU216HW,2013-02-10 11:50:00,
2013-02-10 12:55:00,48.2,22.3,29.94,North,0,1.3,8.9,36,0.00,,,0.00,WUHU216HW,2013-02-10 11:55:00,
2013-02-10 13:00:00,47.8,22.6,29.94,NW,305,2.0,8.9,37,0.00,,,0.00,WUHU216HW,2013-02-10 12:00:00,
2013-02-10 13:05:00,47.3,23.3,29.94,SSE,158,0.0,6.9,39,0.00,,,0.00,WUHU216HW,2013-02-10 12:05:00,
2013-02-10 13:10:00,47.4,23.0,29.94,NE,45,3.3,6.9,38,0.00,,,0.00,WUHU216HW,2013-02-10 12:10:00,
2013-02-10 13:15:00,47.6,23.1,29.93,East,100,4.1,6.0,38,0.00,,,0.00,WUHU216HW,2013-02-10 12:15:00,
2013-02-10 13:22:00,48.3,23.7,29.94,NE,45,1.7,4.4,38,0.00,,,0.00,WUHU216HW,2013-02-10 12:22:00,
2013-02-10 13:27:00,48.2,22.3,29.94,NNW,346,4.0,5.3,37,0.00,,,0.00,WUHU216HW,2013-02-10 12:27:00,
2013-02-10 13:32:00,47.1,22.6,29.93,WNW,293,3.5,5.3,38,0.00,,,0.00,WUHU216HW,2013-02-10 12:32:00,
2013-02-10 13:37:00,47.1,22.6,29.93,WNW,293,0.6,4.6,38,0.00,,,0.00,WUHU216HW,2013-02-10 12:37:00,
2013-02-10 13:43:00,47.1,22.6,29.93,NNW,338,1.5,6.9,38,0.00,,,0.00,WUHU216HW,2013-02-10 12:43:00,
2013-02-10 13:48:00,47.3,22.8,29.93,West,270,5.1,6.9,38,0.00,,,0.00,WUHU216HW,2013-02-10 12:48:00,
2013-02-10 13:53:00,46.9,22.5,29.92,WNW,283,3.5,6.0,37,0.00,,,0.00,WUHU216HW,2013-02-10 12:53:00,
2013-02-10 13:58:00,47.3,22.1,29.93,NW,315,7.3,7.3,38,0.00,,,0.00,WUHU216HW,2013-02-10 12:58:00,
2013-02-10 14:03:00,47.3,22.1,29.93,NNW,338,6.9,7.3,37,0.00,,,0.00,WUHU216HW,2013-02-10 13:03:00,
2013-02-10 14:08:00,46.9,21.8,29.93,NW,315,6.9,9.1,37,0.00,,,0.00,WUHU216HW,2013-02-10 13:08:00,
2013-02-10 14:13:00,46.2,21.2,29.93,West,270,6.4,9.1,37,0.00,,,0.00,WUHU216HW,2013-02-10 13:13:00,
2013-02-10 14:18:00,46.0,21.2,29.94,NW,315,5.8,7.8,37,0.00,,,0.00,WUHU216HW,2013-02-10 13:18:00,
2013-02-10 14:23:00,46.0,21.0,29.93,WNW,293,5.1,7.8,37,0.00,,,0.00,WUHU216HW,2013-02-10 13:23:00,
2013-02-10 14:28:00,46.2,20.5,29.94,WNW,293,3.8,5.5,36,0.00,,,0.00,WUHU216HW,2013-02-10 13:28:00,
2013-02-10 14:33:00,47.3,21.5,29.93,NW,315,4.0,6.2,36,0.00,,,0.00,WUHU216HW,2013-02-10 13:33:00,
2013-02-10 14:38:00,47.6,21.0,29.93,WNW,293,3.3,6.2,35,0.00,,,0.00,WUHU216HW,2013-02-10 13:38:00,
2013-02-10 14:43:00,47.3,20.8,29.93,WNW,293,5.0,6.9,35,0.00,,,0.00,WUHU216HW,2013-02-10 13:43:00,
2013-02-10 14:48:00,47.4,21.0,29.93,West,278,5.4,6.9,35,0.00,,,0.00,WUHU216HW,2013-02-10 13:48:00,
2013-02-10 14:53:00,47.3,20.8,29.93,NNW,338,6.7,6.7,35,0.00,,,0.00,WUHU216HW,2013-02-10 13:53:00,
2013-02-10 14:58:00,47.3,21.5,29.93,WNW,293,4.2,6.7,36,0.00,,,0.00,WUHU216HW,2013-02-10 13:58:00,
2013-02-10 15:03:00,47.8,21.9,29.93,WNW,293,2.0,6.2,36,0.00,,,0.00,WUHU216HW,2013-02-10 14:03:00,
2013-02-10 15:08:00,47.6,21.8,29.93,West,270,3.8,7.6,36,0.00,,,0.00,WUHU216HW,2013-02-10 14:08:00,
2013-02-10 15:13:00,47.4,21.0,29.93,WSW,243,2.2,10.7,35,0.00,,,0.00,WUHU216HW,2013-02-10 14:13:00,
2013-02-10 15:18:00,47.4,20.3,29.93,West,271,5.7,10.7,34,0.00,,,0.00,WUHU216HW,2013-02-10 14:18:00,
2013-02-10 15:23:00,47.3,20.8,29.93,NW,315,3.5,7.6,34,0.00,,,0.00,WUHU216HW,2013-02-10 14:23:00,
2013-02-10 15:28:00,47.3,20.8,29.93,NW,315,5.2,6.2,35,0.00,,,0.00,WUHU216HW,2013-02-10 14:28:00,
2013-02-10 15:33:00,47.1,21.3,29.93,West,270,3.5,6.9,36,0.00,,,0.00,WUHU216HW,2013-02-10 14:33:00,
2013-02-10 15:38:00,47.1,22.0,29.93,West,264,6.6,9.8,37,0.00,,,0.00,WUHU216HW,2013-02-10 14:38:00,
2013-02-10 15:43:00,47.6,21.6,29.93,NW,315,5.1,9.8,36,0.00,,,0.00,WUHU216HW,2013-02-10 14:43:00,
2013-02-10 15:48:00,47.3,21.5,29.93,NW,315,6.9,6.9,36,0.00,,,0.00,WUHU216HW,2013-02-10 14:48:00,
2013-02-10 15:53:00,47.4,21.6,29.93,NNE,14,1.6,8.7,36,0.00,,,0.00,WUHU216HW,2013-02-10 14:53:00,
2013-02-10 15:58:00,47.8,21.9,29.94,North,356,2.8,8.7,36,0.00,,,0.00,WUHU216HW,2013-02-10 14:58:00,
2013-02-10 16:03:00,48.0,21.4,29.94,NNW,338,5.8,5.8,35,0.00,,,0.00,WUHU216HW,2013-02-10 15:03:00,
2013-02-10 16:08:00,47.3,20.8,29.94,WNW,293,3.3,5.8,35,0.00,,,0.00,WUHU216HW,2013-02-10 15:08:00,
2013-02-10 16:13:00,47.4,21.0,29.94,North,0,6.4,6.4,35,0.00,,,0.00,WUHU216HW,2013-02-10 15:13:00,
2013-02-10 16:18:00,47.1,20.6,29.94,North,0,0.0,6.4,35,0.00,,,0.00,WUHU216HW,2013-02-10 15:18:00,
2013-02-10 16:23:00,47.8,19.9,29.94,NNW,336,2.3,6.2,33,0.00,,,0.00,WUHU216HW,2013-02-10 15:23:00,
2013-02-10 16:28:00,47.1,19.3,29.94,WNW,293,4.0,4.0,33,0.00,,,0.00,WUHU216HW,2013-02-10 15:28:00,
2013-02-10 16:33:00,46.5,20.1,29.94,NW,315,3.8,5.8,35,0.00,,,0.00,WUHU216HW,2013-02-10 15:33:00,
2013-02-10 16:38:00,46.0,20.3,29.94,WNW,284,2.7,5.8,36,0.00,,,0.00,WUHU216HW,2013-02-10 15:38:00,
2013-02-10 16:43:00,45.5,21.2,29.94,NW,315,1.7,6.2,38,0.00,,,0.00,WUHU216HW,2013-02-10 15:43:00,
2013-02-10 16:48:00,45.3,21.0,29.95,NW,315,3.3,6.2,38,0.00,,,0.00,WUHU216HW,2013-02-10 15:48:00,
2013-02-10 16:53:00,45.1,21.5,29.95,NW,318,3.7,5.5,39,0.00,,,0.00,WUHU216HW,2013-02-10 15:53:00,
2013-02-10 16:58:00,44.7,21.9,29.95,NW,307,2.2,4.4,40,0.00,,,0.00,WUHU216HW,2013-02-10 15:58:00,
2013-02-10 17:03:00,44.4,21.5,29.95,North,0,2.4,3.1,41,0.00,,,0.00,WUHU216HW,2013-02-10 16:03:00,
2013-02-10 17:08:00,44.4,22.6,29.95,NW,315,2.9,2.9,41,0.00,,,0.00,WUHU216HW,2013-02-10 16:08:00,
2013-02-10 17:13:00,44.2,22.4,29.95,NNW,338,2.6,2.9,42,0.00,,,0.00,WUHU216HW,2013-02-10 16:13:00,
2013-02-10 17:18:00,44.0,23.4,29.96,NNE,23,1.3,2.6,44,0.00,,,0.00,WUHU216HW,2013-02-10 16:18:00,
2013-02-10 17:23:00,43.7,23.6,29.96,NE,45,3.5,3.5,45,0.00,,,0.00,WUHU216HW,2013-02-10 16:23:00,
2013-02-10 17:28:00,43.3,23.8,29.95,ENE,68,2.0,4.0,46,0.00,,,0.00,WUHU216HW,2013-02-10 16:28:00,
2013-02-10 17:33:00,42.9,24.0,29.96,ENE,68,1.1,4.0,47,0.00,,,0.00,WUHU216HW,2013-02-10 16:33:00,
2013-02-10 17:38:00,42.9,24.6,29.96,East,90,0.0,2.4,48,0.00,,,0.00,WUHU216HW,2013-02-10 16:38:00,
2013-02-10 17:43:00,42.4,24.6,29.96,ESE,113,0.0,2.0,49,0.00,,,0.00,WUHU216HW,2013-02-10 16:43:00,
2013-02-10 17:48:00,42.0,24.8,29.96,ESE,113,0.0,2.0,50,0.00,,,0.00,WUHU216HW,2013-02-10 16:48:00,
2013-02-10 17:53:00,41.5,25.5,29.96,ENE,68,0.0,1.5,53,0.00,,,0.00,WUHU216HW,2013-02-10 16:53:00,
2013-02-10 17:58:00,41.1,24.7,29.96,ESE,113,0.0,1.5,52,0.00,,,0.00,WUHU216HW,2013-02-10 16:58:00,
2013-02-10 18:03:00,40.8,24.4,29.96,ENE,68,1.5,1.7,52,0.00,,,0.00,WUHU216HW,2013-02-10 17:03:00,
2013-02-10 18:08:00,40.8,24.8,29.96,NW,315,0.0,1.7,53,0.00,,,0.00,WUHU216HW,2013-02-10 17:08:00,
2013-02-10 18:13:00,40.2,25.4,29.97,NNE,23,0.0,1.7,55,0.00,,,0.00,WUHU216HW,2013-02-10 17:13:00,
2013-02-10 18:18:00,39.9,25.3,29.97,NNE,23,0.0,1.7,56,0.00,,,0.00,WUHU216HW,2013-02-10 17:18:00,
2013-02-10 18:23:00,39.5,25.4,29.97,ENE,62,1.2,1.7,57,0.00,,,0.00,WUHU216HW,2013-02-10 17:23:00,
2013-02-10 18:28:00,39.2,25.1,29.97,SE,135,0.0,1.7,57,0.00,,,0.00,WUHU216HW,2013-02-10 17:28:00,
2013-02-10 18:33:00,39.0,24.9,29.98,South,180,0.0,1.5,57,0.00,,,0.00,WUHU216HW,2013-02-10 17:33:00,
2013-02-10 18:40:00,38.8,25.2,29.98,South,180,0.0,0.0,58,0.00,,,0.00,WUHU216HW,2013-02-10 17:40:00,
2013-02-10 18:45:00,38.8,25.6,29.98,SSE,158,0.0,0.0,59,0.00,,,0.00,WUHU216HW,2013-02-10 17:45:00,
2013-02-10 18:50:00,38.8,25.6,29.98,NE,45,0.8,0.8,59,0.00,,,0.00,WUHU216HW,2013-02-10 17:50:00,
2013-02-10 18:55:00,38.4,25.3,29.98,NE,45,1.3,1.3,60,0.00,,,0.00,WUHU216HW,2013-02-10 17:55:00,
2013-02-10 19:00:00,38.8,25.6,29.98,WSW,248,2.4,2.4,59,0.00,,,0.00,WUHU216HW,2013-02-10 18:00:00,
2013-02-10 19:05:00,38.4,25.3,29.98,SW,225,1.1,2.4,60,0.00,,,0.00,WUHU216HW,2013-02-10 18:05:00,
2013-02-10 19:10:00,38.8,25.6,29.98,WSW,248,1.7,2.4,59,0.00,,,0.00,WUHU216HW,2013-02-10 18:10:00,
2013-02-10 19:15:00,38.4,25.5,29.98,SSW,203,0.0,3.8,59,0.00,,,0.00,WUHU216HW,2013-02-10 18:15:00,
2013-02-10 19:20:00,38.4,25.3,29.99,NNE,23,0.8,3.8,60,0.00,,,0.00,WUHU216HW,2013-02-10 18:20:00,
2013-02-10 19:25:00,37.9,26.4,29.99,NE,45,0.0,2.4,63,0.00,,,0.00,WUHU216HW,2013-02-10 18:25:00,
2013-02-10 19:30:00,37.5,26.0,29.99,North,0,0.6,2.4,63,0.00,,,0.00,WUHU216HW,2013-02-10 18:30:00,
2013-02-10 19:35:00,37.2,25.7,29.99,ENE,68,1.3,1.3,63,0.00,,,0.00,WUHU216HW,2013-02-10 18:35:00,
2013-02-10 19:40:00,37.2,25.7,29.99,NE,45,0.0,1.3,63,0.00,,,0.00,WUHU216HW,2013-02-10 18:40:00,
2013-02-10 19:45:00,37.2,26.1,29.99,East,90,1.7,1.7,64,0.00,,,0.00,WUHU216HW,2013-02-10 18:45:00,
2013-02-10 19:50:00,37.0,26.3,29.99,NE,45,1.5,2.0,65,0.00,,,0.00,WUHU216HW,2013-02-10 18:50:00,
2013-02-10 19:55:00,37.2,26.5,29.99,ESE,113,1.1,2.4,65,0.00,,,0.00,WUHU216HW,2013-02-10 18:55:00,
2013-02-10 20:00:00,37.2,26.1,29.99,NE,45,0.0,2.4,64,0.00,,,0.00,WUHU216HW,2013-02-10 19:00:00,
2013-02-10 20:05:00,37.2,26.1,29.99,East,90,0.0,0.0,64,0.00,,,0.00,WUHU216HW,2013-02-10 19:05:00,
2013-02-10 20:10:00,37.2,26.1,29.99,NE,45,0.0,0.0,64,0.00,,,0.00,WUHU216HW,2013-02-10 19:10:00,
2013-02-10 20:15:00,36.6,26.7,29.99,NNE,23,0.0,0.0,67,0.00,,,0.00,WUHU216HW,2013-02-10 19:15:00,
2013-02-10 20:20:00,36.1,26.2,29.99,ESE,113,0.0,0.0,67,0.00,,,0.00,WUHU216HW,2013-02-10 19:20:00,
2013-02-10 20:25:00,35.7,26.2,29.99,NNE,23,0.6,0.6,68,0.00,,,0.00,WUHU216HW,2013-02-10 19:25:00,
2013-02-10 20:30:00,35.4,25.8,29.99,NE,45,0.6,0.6,68,0.00,,,0.00,WUHU216HW,2013-02-10 19:30:00,
2013-02-10 20:35:00,35.2,25.7,29.99,NNE,23,0.0,0.6,68,0.00,,,0.00,WUHU216HW,2013-02-10 19:35:00,
2013-02-10 20:40:00,35.2,26.0,29.99,North,0,0.0,0.0,69,0.00,,,0.00,WUHU216HW,2013-02-10 19:40:00,
2013-02-10 20:45:00,35.2,26.0,29.99,NW,315,0.0,0.0,69,0.00,,,0.00,WUHU216HW,2013-02-10 19:45:00,
2013-02-10 20:50:00,35.6,26.4,30.00,SW,225,1.2,1.3,69,0.00,,,0.00,WUHU216HW,2013-02-10 19:50:00,
2013-02-10 20:56:00,35.9,26.7,29.99,SW,225,0.0,2.0,69,0.00,,,0.00,WUHU216HW,2013-02-10 19:56:00,
2013-02-10 21:01:00,35.7,26.9,29.99,North,0,0.0,2.0,70,0.00,,,0.00,WUHU216HW,2013-02-10 20:01:00,
2013-02-10 21:06:00,35.4,26.6,29.99,NE,45,0.6,0.8,70,0.00,,,0.00,WUHU216HW,2013-02-10 20:06:00,
2013-02-10 21:11:00,34.8,26.3,29.99,NE,45,0.0,1.3,71,0.00,,,0.00,WUHU216HW,2013-02-10 20:11:00,
2013-02-10 21:16:00,34.8,26.3,30.00,NE,45,0.0,1.3,71,0.00,,,0.00,WUHU216HW,2013-02-10 20:16:00,
2013-02-10 21:21:00,34.8,26.3,30.00,NNE,23,0.0,0.0,71,0.00,,,0.00,WUHU216HW,2013-02-10 20:21:00,
2013-02-10 21:26:00,34.7,26.2,30.00,North,0,0.0,0.0,71,0.00,,,0.00,WUHU216HW,2013-02-10 20:26:00,
2013-02-10 21:31:00,34.5,26.0,30.00,NE,45,0.0,0.0,71,0.00,,,0.00,WUHU216HW,2013-02-10 20:31:00,
2013-02-10 21:36:00,34.7,26.6,30.00,East,90,1.0,1.3,73,0.00,,,0.00,WUHU216HW,2013-02-10 20:36:00,
2013-02-10 21:41:00,34.8,26.7,30.00,East,90,0.0,1.3,72,0.00,,,0.00,WUHU216HW,2013-02-10 20:41:00,
2013-02-10 21:46:00,34.8,26.3,30.00,ESE,113,2.0,2.0,71,0.00,,,0.00,WUHU216HW,2013-02-10 20:46:00,
2013-02-10 21:51:00,34.8,26.3,30.00,ESE,113,2.0,2.0,71,0.00,,,0.00,WUHU216HW,2013-02-10 20:51:00,
2013-02-10 21:56:00,34.8,26.3,30.00,East,90,0.0,2.0,71,0.00,,,0.00,WUHU216HW,2013-02-10 20:56:00,
2013-02-10 22:01:00,34.8,26.3,30.00,South,180,0.0,1.1,71,0.00,,,0.00,WUHU216HW,2013-02-10 21:01:00,
2013-02-10 22:06:00,35.2,26.7,30.01,ESE,113,0.0,0.0,71,0.00,,,0.00,WUHU216HW,2013-02-10 21:06:00,
2013-02-10 22:11:00,35.2,26.7,30.01,East,90,1.5,1.5,71,0.00,,,0.00,WUHU216HW,2013-02-10 21:11:00,
2013-02-10 22:16:00,34.8,26.3,30.01,ESE,113,1.3,2.2,71,0.00,,,0.00,WUHU216HW,2013-02-10 21:16:00,
2013-02-10 22:21:00,34.8,26.3,30.01,East,90,2.0,2.2,71,0.00,,,0.00,WUHU216HW,2013-02-10 21:21:00,
2013-02-10 22:26:00,34.5,26.0,30.01,ESE,113,2.9,2.9,71,0.00,,,0.00,WUHU216HW,2013-02-10 21:26:00,
2013-02-10 22:31:00,34.3,25.8,30.01,ESE,113,0.6,2.9,71,0.00,,,0.00,WUHU216HW,2013-02-10 21:31:00,
2013-02-10 22:36:00,34.3,25.8,30.01,ESE,113,1.1,1.1,71,0.00,,,0.00,WUHU216HW,2013-02-10 21:36:00,
2013-02-10 22:41:00,34.5,26.0,30.01,SE,135,0.0,1.1,71,0.00,,,0.00,WUHU216HW,2013-02-10 21:41:00,
2013-02-10 22:46:00,34.5,26.0,30.02,East,90,0.0,0.0,71,0.00,,,0.00,WUHU216HW,2013-02-10 21:46:00,
2013-02-10 22:51:00,34.5,26.0,30.01,ESE,113,1.6,2.0,71,0.00,,,0.00,WUHU216HW,2013-02-10 21:51:00,
2013-02-10 22:57:00,34.3,26.1,30.01,SE,135,0.8,2.0,72,0.00,,,0.00,WUHU216HW,2013-02-10 21:57:00,
2013-02-10 23:02:00,34.3,26.1,30.01,SE,135,0.0,1.5,72,0.00,,,0.00,WUHU216HW,2013-02-10 22:02:00,
2013-02-10 23:06:00,34.5,26.0,30.02,ESE,113,1.5,1.5,71,0.00,,,0.00,WUHU216HW,2013-02-10 22:06:00,
2013-02-10 23:12:00,34.5,26.0,30.02,East,90,1.3,1.5,71,0.00,,,0.00,WUHU216HW,2013-02-10 22:12:00,
2013-02-10 23:17:00,34.3,26.1,30.02,East,90,1.5,1.5,72,0.00,,,0.00,WUHU216HW,2013-02-10 22:17:00,
2013-02-10 23:22:00,34.1,26.4,30.02,East,90,2.4,2.4,73,0.00,,,0.00,WUHU216HW,2013-02-10 22:22:00,
2013-02-10 23:27:00,34.1,26.3,30.02,East,90,2.2,2.9,73,0.00,,,0.00,WUHU216HW,2013-02-10 22:27:00,
2013-02-10 23:32:00,33.9,26.1,30.02,ESE,103,2.0,2.9,73,0.00,,,0.00,WUHU216HW,2013-02-10 22:32:00,
2013-02-10 23:37:00,34.1,26.3,30.02,East,90,2.2,2.4,73,0.00,,,0.00,WUHU216HW,2013-02-10 22:37:00,
2013-02-10 23:42:00,34.1,26.3,30.02,ESE,113,1.5,2.4,73,0.00,,,0.00,WUHU216HW,2013-02-10 22:42:00,
2013-02-10 23:47:00,34.1,26.3,30.02,East,90,0.8,2.0,73,0.00,,,0.00,WUHU216HW,2013-02-10 22:47:00,
2013-02-10 23:52:00,33.9,26.1,30.03,ESE,113,0.0,1.5,73,0.00,,,0.00,WUHU216HW,2013-02-10 22:52:00,
2013-02-10 23:57:00,33.9,26.1,30.03,SE,135,0.0,1.5,73,0.00,,,0.00,WUHU216HW,2013-02-10 22:57:00,